NCAR-RAP Real-Time Weather Data

Output produced by METARs form (14 October 2019  22:42 UTC)
found at http://weather.rap.ucar.edu/surface/
 
KPHL 142154Z 28010KT 10SM CLR 23/02 A2995 RMK AO2 SLP141 T02280022 $
KPHL 142054Z 26014G18KT 10SM CLR 23/03 A2993 RMK AO2 SLP135 T02330028 56013 $
KPHL 141954Z 29007KT 10SM CLR 23/04 A2993 RMK AO2 SLP136 T02280039 $